sensor_id;sensor_type;location;lat;lon;timestamp;pressure;altitude;pressure_sealevel;temperature;humidity
28606;BME280;46498;49.968;7.754;2022-07-05T00:02:06;97534.00;;;15.95;57.97
28606;BME280;46498;49.968;7.754;2022-07-05T00:07:07;97531.00;;;15.91;58.21
28606;BME280;46498;49.968;7.754;2022-07-05T00:12:24;97528.00;;;15.86;58.49
28606;BME280;46498;49.968;7.754;2022-07-05T00:17:25;97530.00;;;15.78;58.90
28606;BME280;46498;49.968;7.754;2022-07-05T00:22:27;97525.00;;;15.68;58.79
28606;BME280;46498;49.968;7.754;2022-07-05T00:27:30;97532.00;;;15.62;59.48
28606;BME280;46498;49.968;7.754;2022-07-05T00:32:31;97536.00;;;15.35;60.60
28606;BME280;46498;49.968;7.754;2022-07-05T00:37:33;97536.00;;;15.41;60.87
28606;BME280;46498;49.968;7.754;2022-07-05T00:42:34;97533.00;;;15.41;60.98
28606;BME280;46498;49.968;7.754;2022-07-05T00:47:35;97532.00;;;15.30;60.72
28606;BME280;46498;49.968;7.754;2022-07-05T00:52:36;97526.00;;;15.12;61.68
28606;BME280;46498;49.968;7.754;2022-07-05T00:57:37;97530.00;;;15.11;62.00
28606;BME280;46498;49.968;7.754;2022-07-05T01:02:38;97534.00;;;15.22;61.23
28606;BME280;46498;49.968;7.754;2022-07-05T01:07:39;97536.00;;;15.27;61.59
28606;BME280;46498;49.968;7.754;2022-07-05T01:12:40;97530.00;;;15.18;62.12
28606;BME280;46498;49.968;7.754;2022-07-05T01:17:41;97530.00;;;14.97;63.14
28606;BME280;46498;49.968;7.754;2022-07-05T01:23:17;97525.00;;;14.97;63.56
28606;BME280;46498;49.968;7.754;2022-07-05T01:28:19;97526.00;;;15.12;63.33
28606;BME280;46498;49.968;7.754;2022-07-05T01:33:27;97533.00;;;15.16;62.84
28606;BME280;46498;49.968;7.754;2022-07-05T01:38:28;97522.00;;;15.20;62.81
28606;BME280;46498;49.968;7.754;2022-07-05T01:43:29;97532.00;;;15.28;61.63
28606;BME280;46498;49.968;7.754;2022-07-05T01:48:32;97524.00;;;15.16;62.72
28606;BME280;46498;49.968;7.754;2022-07-05T01:53:34;97531.00;;;15.14;62.80
28606;BME280;46498;49.968;7.754;2022-07-05T01:58:35;97523.00;;;15.07;63.13
28606;BME280;46498;49.968;7.754;2022-07-05T02:03:36;97520.00;;;15.03;63.73
28606;BME280;46498;49.968;7.754;2022-07-05T02:08:59;97536.00;;;15.06;63.82
28606;BME280;46498;49.968;7.754;2022-07-05T02:14:00;97527.00;;;14.78;64.18
28606;BME280;46498;49.968;7.754;2022-07-05T02:19:04;97529.00;;;14.73;65.06
28606;BME280;46498;49.968;7.754;2022-07-05T02:24:10;97531.00;;;14.73;65.68
28606;BME280;46498;49.968;7.754;2022-07-05T02:29:16;97516.00;;;14.81;64.20
28606;BME280;46498;49.968;7.754;2022-07-05T02:34:19;97523.00;;;14.96;63.46
28606;BME280;46498;49.968;7.754;2022-07-05T02:39:21;97524.00;;;15.04;63.45
28606;BME280;46498;49.968;7.754;2022-07-05T02:44:23;97524.00;;;15.11;62.75
28606;BME280;46498;49.968;7.754;2022-07-05T02:49:25;97532.00;;;15.16;62.74
28606;BME280;46498;49.968;7.754;2022-07-05T02:54:27;97525.00;;;15.23;62.51
28606;BME280;46498;49.968;7.754;2022-07-05T02:59:29;97522.00;;;15.34;61.89
28606;BME280;46498;49.968;7.754;2022-07-05T03:04:32;97533.00;;;15.40;61.84
28606;BME280;46498;49.968;7.754;2022-07-05T03:09:33;97530.00;;;15.46;61.74
28606;BME280;46498;49.968;7.754;2022-07-05T03:14:35;97534.00;;;15.52;61.83
28606;BME280;46498;49.968;7.754;2022-07-05T03:19:37;97539.00;;;15.59;61.77
28606;BME280;46498;49.968;7.754;2022-07-05T03:24:39;97540.00;;;15.58;62.02
28606;BME280;46498;49.968;7.754;2022-07-05T03:29:40;97543.00;;;15.62;61.83
28606;BME280;46498;49.968;7.754;2022-07-05T03:34:44;97542.00;;;15.65;61.80
28606;BME280;46498;49.968;7.754;2022-07-05T03:39:46;97540.00;;;15.67;61.87
28606;BME280;46498;49.968;7.754;2022-07-05T03:44:48;97540.00;;;15.67;62.12
28606;BME280;46498;49.968;7.754;2022-07-05T03:49:49;97543.00;;;15.65;61.90
28606;BME280;46498;49.968;7.754;2022-07-05T03:54:51;97541.00;;;15.66;61.95
28606;BME280;46498;49.968;7.754;2022-07-05T03:59:53;97534.00;;;15.65;62.09
28606;BME280;46498;49.968;7.754;2022-07-05T04:04:54;97536.00;;;15.61;62.48
28606;BME280;46498;49.968;7.754;2022-07-05T04:09:55;97543.00;;;15.54;63.02
28606;BME280;46498;49.968;7.754;2022-07-05T04:14:57;97549.00;;;15.30;63.40
28606;BME280;46498;49.968;7.754;2022-07-05T04:19:58;97549.00;;;15.34;63.86
28606;BME280;46498;49.968;7.754;2022-07-05T04:25:00;97550.00;;;15.59;64.12
28606;BME280;46498;49.968;7.754;2022-07-05T04:30:19;97556.00;;;15.88;62.62
28606;BME280;46498;49.968;7.754;2022-07-05T04:35:22;97562.00;;;15.94;62.81
28606;BME280;46498;49.968;7.754;2022-07-05T04:40:24;97559.00;;;15.90;62.41
28606;BME280;46498;49.968;7.754;2022-07-05T04:45:25;97568.00;;;15.97;63.09
28606;BME280;46498;49.968;7.754;2022-07-05T04:50:27;97563.00;;;16.45;62.24
28606;BME280;46498;49.968;7.754;2022-07-05T04:55:29;97566.00;;;16.83;60.60
28606;BME280;46498;49.968;7.754;2022-07-05T05:00:29;97569.00;;;16.81;63.56
28606;BME280;46498;49.968;7.754;2022-07-05T05:05:31;97573.00;;;16.45;61.45
28606;BME280;46498;49.968;7.754;2022-07-05T05:10:32;97570.00;;;16.31;61.67
28606;BME280;46498;49.968;7.754;2022-07-05T05:15:33;97576.00;;;16.43;61.70
28606;BME280;46498;49.968;7.754;2022-07-05T05:20:33;97573.00;;;16.55;61.59
28606;BME280;46498;49.968;7.754;2022-07-05T05:25:41;97580.00;;;16.87;60.80
28606;BME280;46498;49.968;7.754;2022-07-05T05:30:42;97580.00;;;17.11;59.52
28606;BME280;46498;49.968;7.754;2022-07-05T05:35:43;97582.00;;;17.29;60.04
28606;BME280;46498;49.968;7.754;2022-07-05T05:40:44;97590.00;;;17.73;58.58
28606;BME280;46498;49.968;7.754;2022-07-05T05:45:45;97592.00;;;18.22;56.90
28606;BME280;46498;49.968;7.754;2022-07-05T05:50:46;97601.00;;;18.54;56.40
28606;BME280;46498;49.968;7.754;2022-07-05T05:55:47;97605.00;;;18.51;55.83
28606;BME280;46498;49.968;7.754;2022-07-05T06:00:48;97614.00;;;18.55;55.42
28606;BME280;46498;49.968;7.754;2022-07-05T06:05:51;97609.00;;;18.67;55.47
28606;BME280;46498;49.968;7.754;2022-07-05T06:10:52;97609.00;;;18.84;55.77
28606;BME280;46498;49.968;7.754;2022-07-05T06:16:01;97612.00;;;19.56;53.67
28606;BME280;46498;49.968;7.754;2022-07-05T06:21:02;97606.00;;;20.02;51.92
28606;BME280;46498;49.968;7.754;2022-07-05T06:26:03;97622.00;;;20.37;50.99
28606;BME280;46498;49.968;7.754;2022-07-05T06:31:05;97624.00;;;20.65;50.61
28606;BME280;46498;49.968;7.754;2022-07-05T06:36:06;97619.00;;;21.16;49.14
28606;BME280;46498;49.968;7.754;2022-07-05T06:41:07;97624.00;;;21.09;49.33
28606;BME280;46498;49.968;7.754;2022-07-05T06:46:09;97632.00;;;20.92;49.21
28606;BME280;46498;49.968;7.754;2022-07-05T06:51:10;97630.00;;;21.28;48.71
28606;BME280;46498;49.968;7.754;2022-07-05T06:56:11;97633.00;;;21.20;48.71
28606;BME280;46498;49.968;7.754;2022-07-05T07:01:12;97637.00;;;20.66;50.75
28606;BME280;46498;49.968;7.754;2022-07-05T07:06:22;97639.00;;;20.98;49.80
28606;BME280;46498;49.968;7.754;2022-07-05T07:11:24;97645.00;;;21.47;49.52
28606;BME280;46498;49.968;7.754;2022-07-05T07:16:25;97636.00;;;21.52;46.70
28606;BME280;46498;49.968;7.754;2022-07-05T07:21:26;97649.00;;;20.71;48.24
28606;BME280;46498;49.968;7.754;2022-07-05T07:26:28;97649.00;;;20.49;48.31
28606;BME280;46498;49.968;7.754;2022-07-05T07:31:29;97659.00;;;20.68;48.97
28606;BME280;46498;49.968;7.754;2022-07-05T07:36:30;97647.00;;;20.48;47.74
28606;BME280;46498;49.968;7.754;2022-07-05T07:41:31;97659.00;;;20.81;48.02
28606;BME280;46498;49.968;7.754;2022-07-05T07:46:32;97666.00;;;21.21;44.63
28606;BME280;46498;49.968;7.754;2022-07-05T07:51:34;97663.00;;;21.58;45.47
28606;BME280;46498;49.968;7.754;2022-07-05T07:56:35;97669.00;;;22.20;42.61
28606;BME280;46498;49.968;7.754;2022-07-05T08:01:36;97662.00;;;22.20;42.09
28606;BME280;46498;49.968;7.754;2022-07-05T08:06:45;97664.00;;;22.24;43.19
28606;BME280;46498;49.968;7.754;2022-07-05T08:11:46;97669.00;;;22.31;42.99
28606;BME280;46498;49.968;7.754;2022-07-05T08:16:48;97672.00;;;21.72;41.92
28606;BME280;46498;49.968;7.754;2022-07-05T08:21:52;97666.00;;;21.55;42.59
28606;BME280;46498;49.968;7.754;2022-07-05T08:26:53;97665.00;;;22.07;42.13
28606;BME280;46498;49.968;7.754;2022-07-05T08:31:54;97666.00;;;22.36;41.30
28606;BME280;46498;49.968;7.754;2022-07-05T08:36:55;97663.00;;;22.43;39.56
28606;BME280;46498;49.968;7.754;2022-07-05T08:41:57;97661.00;;;22.16;40.35
28606;BME280;46498;49.968;7.754;2022-07-05T08:47:02;97667.00;;;22.42;39.48
28606;BME280;46498;49.968;7.754;2022-07-05T08:52:04;97666.00;;;22.65;38.38
28606;BME280;46498;49.968;7.754;2022-07-05T08:57:07;97659.00;;;22.87;38.41
28606;BME280;46498;49.968;7.754;2022-07-05T09:02:16;97661.00;;;22.83;38.35
28606;BME280;46498;49.968;7.754;2022-07-05T09:07:17;97656.00;;;22.51;38.05
28606;BME280;46498;49.968;7.754;2022-07-05T09:12:21;97662.00;;;22.62;37.57
28606;BME280;46498;49.968;7.754;2022-07-05T09:17:25;97652.00;;;22.70;37.38
28606;BME280;46498;49.968;7.754;2022-07-05T09:22:44;97649.00;;;23.04;37.15
28606;BME280;46498;49.968;7.754;2022-07-05T09:27:57;97652.00;;;22.68;37.02
28606;BME280;46498;49.968;7.754;2022-07-05T09:33:11;97647.00;;;23.15;36.93
28606;BME280;46498;49.968;7.754;2022-07-05T09:38:20;97651.00;;;23.61;37.10
28606;BME280;46498;49.968;7.754;2022-07-05T09:43:24;97655.00;;;23.71;36.28
28606;BME280;46498;49.968;7.754;2022-07-05T09:48:26;97646.00;;;23.29;36.07
28606;BME280;46498;49.968;7.754;2022-07-05T09:53:51;97649.00;;;23.76;35.07
28606;BME280;46498;49.968;7.754;2022-07-05T09:59:19;97649.00;;;24.10;33.86
28606;BME280;46498;49.968;7.754;2022-07-05T10:04:23;97649.00;;;24.08;33.82
28606;BME280;46498;49.968;7.754;2022-07-05T10:09:25;97660.00;;;24.08;34.58
28606;BME280;46498;49.968;7.754;2022-07-05T10:14:27;97660.00;;;24.82;33.49
28606;BME280;46498;49.968;7.754;2022-07-05T10:19:32;97655.00;;;24.92;34.44
28606;BME280;46498;49.968;7.754;2022-07-05T10:24:34;97653.00;;;23.17;36.72
28606;BME280;46498;49.968;7.754;2022-07-05T10:29:37;97646.00;;;23.96;35.37
28606;BME280;46498;49.968;7.754;2022-07-05T10:34:39;97650.00;;;24.63;32.18
28606;BME280;46498;49.968;7.754;2022-07-05T10:39:59;97653.00;;;25.05;33.09
28606;BME280;46498;49.968;7.754;2022-07-05T10:45:01;97656.00;;;25.43;32.28
28606;BME280;46498;49.968;7.754;2022-07-05T10:50:05;97654.00;;;25.85;30.47
28606;BME280;46498;49.968;7.754;2022-07-05T10:55:22;97660.00;;;25.35;29.20
28606;BME280;46498;49.968;7.754;2022-07-05T11:00:25;97651.00;;;25.72;27.11
28606;BME280;46498;49.968;7.754;2022-07-05T11:05:28;97631.00;;;25.40;28.61
28606;BME280;46498;49.968;7.754;2022-07-05T11:10:30;97645.00;;;25.45;28.21
28606;BME280;46498;49.968;7.754;2022-07-05T11:15:34;97626.00;;;25.58;27.55
28606;BME280;46498;49.968;7.754;2022-07-05T11:20:35;97629.00;;;25.95;28.36
28606;BME280;46498;49.968;7.754;2022-07-05T11:25:41;97630.00;;;25.95;27.56
28606;BME280;46498;49.968;7.754;2022-07-05T11:30:50;97626.00;;;26.43;27.62
28606;BME280;46498;49.968;7.754;2022-07-05T11:35:52;97613.00;;;27.26;27.38
28606;BME280;46498;49.968;7.754;2022-07-05T11:40:54;97612.00;;;27.34;25.83
28606;BME280;46498;49.968;7.754;2022-07-05T11:46:00;97615.00;;;27.08;25.92
28606;BME280;46498;49.968;7.754;2022-07-05T11:51:12;97609.00;;;26.14;27.69
28606;BME280;46498;49.968;7.754;2022-07-05T11:56:14;97599.00;;;26.11;28.80
28606;BME280;46498;49.968;7.754;2022-07-05T12:01:15;97602.00;;;25.68;28.72
28606;BME280;46498;49.968;7.754;2022-07-05T12:06:16;97606.00;;;25.03;31.05
28606;BME280;46498;49.968;7.754;2022-07-05T12:11:18;97599.00;;;26.24;30.81
28606;BME280;46498;49.968;7.754;2022-07-05T12:16:37;97595.00;;;25.58;30.91
28606;BME280;46498;49.968;7.754;2022-07-05T12:21:38;97593.00;;;25.53;30.96
28606;BME280;46498;49.968;7.754;2022-07-05T12:26:39;97584.00;;;26.01;29.79
28606;BME280;46498;49.968;7.754;2022-07-05T12:31:57;97584.00;;;26.74;29.27
28606;BME280;46498;49.968;7.754;2022-07-05T12:36:59;97582.00;;;26.05;29.08
28606;BME280;46498;49.968;7.754;2022-07-05T12:42:01;97573.00;;;25.27;29.32
28606;BME280;46498;49.968;7.754;2022-07-05T12:47:05;97575.00;;;25.19;30.52
28606;BME280;46498;49.968;7.754;2022-07-05T12:52:06;97572.00;;;26.17;29.09
28606;BME280;46498;49.968;7.754;2022-07-05T12:57:08;97569.00;;;25.79;29.58
28606;BME280;46498;49.968;7.754;2022-07-05T13:02:38;97575.00;;;25.00;32.15
28606;BME280;46498;49.968;7.754;2022-07-05T13:07:41;97571.00;;;25.39;33.32
28606;BME280;46498;49.968;7.754;2022-07-05T13:12:43;97558.00;;;26.71;32.11
28606;BME280;46498;49.968;7.754;2022-07-05T13:17:45;97560.00;;;27.13;29.60
28606;BME280;46498;49.968;7.754;2022-07-05T13:22:47;97578.00;;;26.48;29.48
28606;BME280;46498;49.968;7.754;2022-07-05T13:27:49;97576.00;;;25.85;30.12
28606;BME280;46498;49.968;7.754;2022-07-05T13:32:49;97570.00;;;26.25;30.71
28606;BME280;46498;49.968;7.754;2022-07-05T13:37:50;97575.00;;;25.26;31.50
28606;BME280;46498;49.968;7.754;2022-07-05T13:42:51;97573.00;;;25.11;32.30
28606;BME280;46498;49.968;7.754;2022-07-05T13:47:53;97580.00;;;25.41;31.90
28606;BME280;46498;49.968;7.754;2022-07-05T13:52:53;97580.00;;;25.14;31.82
28606;BME280;46498;49.968;7.754;2022-07-05T13:57:55;97582.00;;;24.75;32.52
28606;BME280;46498;49.968;7.754;2022-07-05T14:02:57;97574.00;;;24.90;32.97
28606;BME280;46498;49.968;7.754;2022-07-05T14:08:06;97573.00;;;24.89;32.27
28606;BME280;46498;49.968;7.754;2022-07-05T14:13:07;97574.00;;;24.52;33.12
28606;BME280;46498;49.968;7.754;2022-07-05T14:18:08;97580.00;;;25.39;32.25
28606;BME280;46498;49.968;7.754;2022-07-05T14:23:10;97561.00;;;25.03;31.90
28606;BME280;46498;49.968;7.754;2022-07-05T14:28:11;97565.00;;;25.13;34.82
28606;BME280;46498;49.968;7.754;2022-07-05T14:33:13;97557.00;;;25.11;33.50
28606;BME280;46498;49.968;7.754;2022-07-05T14:38:16;97553.00;;;26.05;31.59
28606;BME280;46498;49.968;7.754;2022-07-05T14:43:17;97555.00;;;26.28;33.72
28606;BME280;46498;49.968;7.754;2022-07-05T14:48:19;97550.00;;;25.94;32.88
28606;BME280;46498;49.968;7.754;2022-07-05T14:53:21;97551.00;;;25.27;31.35
28606;BME280;46498;49.968;7.754;2022-07-05T14:58:23;97551.00;;;25.60;33.49
28606;BME280;46498;49.968;7.754;2022-07-05T15:03:24;97552.00;;;25.26;35.75
28606;BME280;46498;49.968;7.754;2022-07-05T15:08:26;97555.00;;;25.82;35.52
28606;BME280;46498;49.968;7.754;2022-07-05T15:13:28;97550.00;;;25.81;35.08
28606;BME280;46498;49.968;7.754;2022-07-05T15:18:29;97540.00;;;25.22;36.06
28606;BME280;46498;49.968;7.754;2022-07-05T15:23:31;97550.00;;;24.89;37.43
28606;BME280;46498;49.968;7.754;2022-07-05T15:28:31;97547.00;;;24.56;37.60
28606;BME280;46498;49.968;7.754;2022-07-05T15:33:32;97540.00;;;24.21;37.98
28606;BME280;46498;49.968;7.754;2022-07-05T15:38:33;97538.00;;;24.23;36.61
28606;BME280;46498;49.968;7.754;2022-07-05T15:43:34;97528.00;;;24.91;36.73
28606;BME280;46498;49.968;7.754;2022-07-05T15:48:35;97527.00;;;24.83;36.61
28606;BME280;46498;49.968;7.754;2022-07-05T15:53:36;97525.00;;;24.26;37.67
28606;BME280;46498;49.968;7.754;2022-07-05T15:58:38;97534.00;;;24.35;38.13
28606;BME280;46498;49.968;7.754;2022-07-05T16:03:40;97527.00;;;24.71;37.24
28606;BME280;46498;49.968;7.754;2022-07-05T16:08:42;97517.00;;;24.51;36.39
28606;BME280;46498;49.968;7.754;2022-07-05T16:13:43;97537.00;;;24.43;36.83
28606;BME280;46498;49.968;7.754;2022-07-05T16:18:45;97534.00;;;24.42;36.71
28606;BME280;46498;49.968;7.754;2022-07-05T16:23:48;97532.00;;;24.19;37.23
28606;BME280;46498;49.968;7.754;2022-07-05T16:28:53;97525.00;;;24.00;37.00
28606;BME280;46498;49.968;7.754;2022-07-05T16:33:54;97526.00;;;23.39;37.88
28606;BME280;46498;49.968;7.754;2022-07-05T16:38:55;97525.00;;;23.55;37.55
28606;BME280;46498;49.968;7.754;2022-07-05T16:44:06;97534.00;;;23.57;37.30
28606;BME280;46498;49.968;7.754;2022-07-05T16:49:07;97540.00;;;23.63;37.18
28606;BME280;46498;49.968;7.754;2022-07-05T16:54:08;97545.00;;;23.56;37.11
28606;BME280;46498;49.968;7.754;2022-07-05T16:59:10;97537.00;;;23.65;36.99
28606;BME280;46498;49.968;7.754;2022-07-05T17:04:11;97537.00;;;23.66;36.47
28606;BME280;46498;49.968;7.754;2022-07-05T17:09:12;97534.00;;;23.50;36.88
28606;BME280;46498;49.968;7.754;2022-07-05T17:14:13;97532.00;;;23.56;36.78
28606;BME280;46498;49.968;7.754;2022-07-05T17:19:14;97538.00;;;23.40;37.48
28606;BME280;46498;49.968;7.754;2022-07-05T17:24:15;97540.00;;;23.23;37.50
28606;BME280;46498;49.968;7.754;2022-07-05T17:29:16;97554.00;;;23.11;38.25
28606;BME280;46498;49.968;7.754;2022-07-05T17:34:17;97552.00;;;23.16;37.36
28606;BME280;46498;49.968;7.754;2022-07-05T17:39:18;97544.00;;;23.01;37.55
28606;BME280;46498;49.968;7.754;2022-07-05T17:44:19;97547.00;;;22.74;37.93
28606;BME280;46498;49.968;7.754;2022-07-05T17:49:19;97558.00;;;22.61;38.19
28606;BME280;46498;49.968;7.754;2022-07-05T17:54:20;97560.00;;;22.41;38.72
28606;BME280;46498;49.968;7.754;2022-07-05T17:59:22;97559.00;;;22.32;39.03
28606;BME280;46498;49.968;7.754;2022-07-05T18:04:23;97572.00;;;22.22;39.31
28606;BME280;46498;49.968;7.754;2022-07-05T18:09:24;97571.00;;;22.21;38.97
28606;BME280;46498;49.968;7.754;2022-07-05T18:14:25;97583.00;;;22.00;39.44
28606;BME280;46498;49.968;7.754;2022-07-05T18:19:26;97578.00;;;21.79;40.21
28606;BME280;46498;49.968;7.754;2022-07-05T18:24:27;97585.00;;;21.58;40.33
28606;BME280;46498;49.968;7.754;2022-07-05T18:29:29;97584.00;;;21.43;40.87
28606;BME280;46498;49.968;7.754;2022-07-05T18:34:30;97592.00;;;21.36;40.90
28606;BME280;46498;49.968;7.754;2022-07-05T18:39:31;97589.00;;;21.18;41.25
28606;BME280;46498;49.968;7.754;2022-07-05T18:44:33;97588.00;;;21.05;41.50
28606;BME280;46498;49.968;7.754;2022-07-05T18:49:34;97598.00;;;21.00;41.71
28606;BME280;46498;49.968;7.754;2022-07-05T18:54:37;97604.00;;;20.87;41.44
28606;BME280;46498;49.968;7.754;2022-07-05T18:59:38;97612.00;;;20.77;41.72
28606;BME280;46498;49.968;7.754;2022-07-05T19:04:39;97623.00;;;20.63;41.83
28606;BME280;46498;49.968;7.754;2022-07-05T19:09:41;97626.00;;;20.47;41.78
28606;BME280;46498;49.968;7.754;2022-07-05T19:15:01;97619.00;;;20.25;42.25
28606;BME280;46498;49.968;7.754;2022-07-05T19:20:03;97622.00;;;20.07;42.67
28606;BME280;46498;49.968;7.754;2022-07-05T19:25:04;97629.00;;;19.90;43.01
28606;BME280;46498;49.968;7.754;2022-07-05T19:30:06;97634.00;;;19.79;43.19
28606;BME280;46498;49.968;7.754;2022-07-05T19:35:08;97632.00;;;19.64;43.69
28606;BME280;46498;49.968;7.754;2022-07-05T19:40:09;97630.00;;;19.57;43.85
28606;BME280;46498;49.968;7.754;2022-07-05T19:45:11;97627.00;;;19.40;44.39
28606;BME280;46498;49.968;7.754;2022-07-05T19:50:12;97638.00;;;19.24;44.79
28606;BME280;46498;49.968;7.754;2022-07-05T19:55:12;97642.00;;;19.09;45.27
28606;BME280;46498;49.968;7.754;2022-07-05T20:00:16;97641.00;;;19.05;44.92
28606;BME280;46498;49.968;7.754;2022-07-05T20:05:17;97647.00;;;18.95;45.24
28606;BME280;46498;49.968;7.754;2022-07-05T20:10:18;97654.00;;;18.90;45.54
28606;BME280;46498;49.968;7.754;2022-07-05T20:15:20;97661.00;;;18.72;45.91
28606;BME280;46498;49.968;7.754;2022-07-05T20:20:21;97670.00;;;18.63;46.44
28606;BME280;46498;49.968;7.754;2022-07-05T20:25:21;97671.00;;;18.58;47.14
28606;BME280;46498;49.968;7.754;2022-07-05T20:30:23;97670.00;;;18.44;48.72
28606;BME280;46498;49.968;7.754;2022-07-05T20:35:24;97678.00;;;18.38;49.70
28606;BME280;46498;49.968;7.754;2022-07-05T20:40:24;97673.00;;;18.26;51.38
28606;BME280;46498;49.968;7.754;2022-07-05T20:45:26;97689.00;;;18.17;52.28
28606;BME280;46498;49.968;7.754;2022-07-05T20:50:27;97696.00;;;18.13;53.22
28606;BME280;46498;49.968;7.754;2022-07-05T20:55:28;97698.00;;;17.99;54.29
28606;BME280;46498;49.968;7.754;2022-07-05T21:00:29;97706.00;;;17.94;55.33
28606;BME280;46498;49.968;7.754;2022-07-05T21:05:31;97708.00;;;17.80;56.53
28606;BME280;46498;49.968;7.754;2022-07-05T21:10:32;97720.00;;;17.67;57.92
28606;BME280;46498;49.968;7.754;2022-07-05T21:15:33;97727.00;;;17.54;58.88
28606;BME280;46498;49.968;7.754;2022-07-05T21:20:35;97728.00;;;17.53;59.25
28606;BME280;46498;49.968;7.754;2022-07-05T21:25:35;97745.00;;;17.48;59.49
28606;BME280;46498;49.968;7.754;2022-07-05T21:30:37;97740.00;;;17.32;60.51
28606;BME280;46498;49.968;7.754;2022-07-05T21:35:38;97755.00;;;17.26;60.65
28606;BME280;46498;49.968;7.754;2022-07-05T21:40:39;97754.00;;;17.24;61.00
28606;BME280;46498;49.968;7.754;2022-07-05T21:45:40;97771.00;;;17.10;61.65
28606;BME280;46498;49.968;7.754;2022-07-05T21:50:41;97774.00;;;17.00;62.10
28606;BME280;46498;49.968;7.754;2022-07-05T21:55:42;97777.00;;;17.28;60.78
28606;BME280;46498;49.968;7.754;2022-07-05T22:00:43;97778.00;;;16.99;62.25
28606;BME280;46498;49.968;7.754;2022-07-05T22:06:03;97781.00;;;16.77;63.46
28606;BME280;46498;49.968;7.754;2022-07-05T22:11:04;97785.00;;;16.59;64.33
28606;BME280;46498;49.968;7.754;2022-07-05T22:16:23;97786.00;;;16.60;64.40
28606;BME280;46498;49.968;7.754;2022-07-05T22:21:24;97799.00;;;16.33;65.80
28606;BME280;46498;49.968;7.754;2022-07-05T22:26:26;97800.00;;;16.35;65.78
28606;BME280;46498;49.968;7.754;2022-07-05T22:31:34;97793.00;;;16.34;66.17
28606;BME280;46498;49.968;7.754;2022-07-05T22:36:35;97807.00;;;16.24;66.97
28606;BME280;46498;49.968;7.754;2022-07-05T22:41:38;97810.00;;;16.20;66.96
28606;BME280;46498;49.968;7.754;2022-07-05T22:46:39;97809.00;;;16.09;67.36
28606;BME280;46498;49.968;7.754;2022-07-05T22:51:40;97799.00;;;16.03;67.06
28606;BME280;46498;49.968;7.754;2022-07-05T22:56:41;97809.00;;;16.02;67.47
28606;BME280;46498;49.968;7.754;2022-07-05T23:01:42;97804.00;;;15.95;67.86
28606;BME280;46498;49.968;7.754;2022-07-05T23:06:43;97807.00;;;16.01;67.00
28606;BME280;46498;49.968;7.754;2022-07-05T23:11:44;97812.00;;;15.76;68.41
28606;BME280;46498;49.968;7.754;2022-07-05T23:16:45;97813.00;;;15.73;68.00
28606;BME280;46498;49.968;7.754;2022-07-05T23:21:46;97812.00;;;15.76;67.30
28606;BME280;46498;49.968;7.754;2022-07-05T23:26:46;97822.00;;;15.72;67.17
28606;BME280;46498;49.968;7.754;2022-07-05T23:31:47;97825.00;;;15.57;67.65
28606;BME280;46498;49.968;7.754;2022-07-05T23:36:48;97824.00;;;15.62;66.51
28606;BME280;46498;49.968;7.754;2022-07-05T23:41:49;97832.00;;;15.61;66.82
28606;BME280;46498;49.968;7.754;2022-07-05T23:46:50;97826.00;;;15.23;68.14
28606;BME280;46498;49.968;7.754;2022-07-05T23:51:51;97832.00;;;15.14;67.69
28606;BME280;46498;49.968;7.754;2022-07-05T23:56:52;97836.00;;;15.08;68.71
